createdAt,value
2023-04-25T00:00:48.885Z,13.63
2023-04-25T00:03:15.766Z,13.73
2023-04-25T00:05:42.705Z,12.88
2023-04-25T00:08:09.476Z,20.00
2023-04-25T00:10:36.374Z,9.50
2023-04-25T00:13:06.092Z,11.05
2023-04-25T00:15:38.855Z,10.35
2023-04-25T00:18:06.822Z,13.68
2023-04-25T00:20:33.625Z,15.02
2023-04-25T00:23:00.348Z,12.48
2023-04-25T00:25:30.417Z,13.43
2023-04-25T00:27:57.102Z,11.55
2023-04-25T00:30:24.031Z,16.42
2023-04-25T00:32:51.667Z,13.90
2023-04-25T00:35:18.768Z,10.75
2023-04-25T00:37:49.565Z,10.52
2023-04-25T00:40:21.390Z,14.63
2023-04-25T00:42:55.119Z,13.00
2023-04-25T00:45:22.311Z,12.38
2023-04-25T00:47:58.331Z,10.15
2023-04-25T00:50:26.558Z,17.38
2023-04-25T00:52:56.882Z,11.45
2023-04-25T00:55:23.720Z,10.68
2023-04-25T00:57:51.290Z,13.23
2023-04-25T01:00:22.546Z,15.18
2023-04-25T01:03:06.444Z,10.93
2023-04-25T01:05:33.566Z,13.05
2023-04-25T01:08:00.966Z,20.80
2023-04-25T01:10:28.310Z,17.00
2023-04-25T01:13:01.246Z,17.00
2023-04-25T01:15:28.136Z,15.25
2023-04-25T01:18:02.044Z,19.88
2023-04-25T01:20:34.174Z,15.98
2023-04-25T01:23:04.040Z,11.75
2023-04-25T01:25:34.830Z,13.00
2023-04-25T01:28:15.936Z,13.45
2023-04-25T01:30:55.912Z,13.38
2023-04-25T01:33:23.219Z,16.63
2023-04-25T01:35:55.667Z,19.48
2023-04-25T01:38:22.765Z,16.23
2023-04-25T01:40:56.125Z,10.85
2023-04-25T01:43:27.533Z,19.97
2023-04-25T01:46:00.726Z,11.27
2023-04-25T01:48:27.524Z,22.13
2023-04-25T01:51:03.927Z,9.38
2023-04-25T01:53:31.807Z,10.80
2023-04-25T01:56:00.750Z,13.38
2023-04-25T01:58:27.534Z,12.20
2023-04-25T02:00:59.964Z,15.52
2023-04-25T02:03:27.167Z,13.68
2023-04-25T02:05:57.183Z,13.60
2023-04-25T02:08:27.820Z,9.88
2023-04-25T02:10:57.685Z,16.05
2023-04-25T02:13:35.630Z,15.90
2023-04-25T02:16:05.725Z,12.30
2023-04-25T02:18:33.053Z,12.40
2023-04-25T02:21:02.144Z,12.27
2023-04-25T02:23:32.158Z,11.68
2023-04-25T02:25:59.369Z,16.92
2023-04-25T02:28:27.037Z,17.02
2023-04-25T02:30:56.864Z,14.18
2023-04-25T02:33:26.705Z,16.17
2023-04-25T02:35:56.786Z,17.27
2023-04-25T02:38:27.025Z,15.95
2023-04-25T02:40:56.657Z,13.25
2023-04-25T02:43:25.949Z,19.23
2023-04-25T02:45:55.935Z,12.23
2023-04-25T02:48:27.112Z,15.30
2023-04-25T02:50:56.772Z,11.18
2023-04-25T02:53:26.072Z,15.05
2023-04-25T02:55:56.258Z,12.73
2023-04-25T02:58:25.669Z,15.73
2023-04-25T03:00:56.097Z,18.83
2023-04-25T03:03:33.113Z,16.95
2023-04-25T03:06:00.042Z,19.27
2023-04-25T03:08:33.659Z,11.45
2023-04-25T03:11:03.051Z,15.23
2023-04-25T03:13:30.902Z,17.85
2023-04-25T03:16:00.188Z,18.80
2023-04-25T03:18:29.655Z,14.75
2023-04-25T03:20:56.762Z,12.38
2023-04-25T03:23:23.384Z,21.13
2023-04-25T03:25:54.436Z,18.67
2023-04-25T03:28:30.321Z,15.45
2023-04-25T03:30:57.103Z,23.55
2023-04-25T03:33:23.914Z,16.13
2023-04-25T03:35:59.282Z,21.67
2023-04-25T03:38:28.993Z,15.32
2023-04-25T03:40:58.976Z,13.63
2023-04-25T03:43:28.153Z,17.90
2023-04-25T03:45:56.022Z,20.70
2023-04-25T03:48:29.980Z,15.90
2023-04-25T03:51:12.910Z,21.45
2023-04-25T03:53:41.990Z,19.98
2023-04-25T03:56:11.839Z,17.00
2023-04-25T03:58:38.575Z,21.67
2023-04-25T04:01:08.516Z,18.25
2023-04-25T04:03:37.492Z,22.60
2023-04-25T04:06:09.812Z,14.25
2023-04-25T04:08:36.738Z,14.60
2023-04-25T04:11:03.617Z,15.98
2023-04-25T04:13:31.180Z,25.35
2023-04-25T04:16:01.657Z,14.95
2023-04-25T04:18:31.772Z,15.07
2023-04-25T04:20:59.262Z,12.65
2023-04-25T04:23:31.069Z,12.88
2023-04-25T04:26:03.781Z,16.10
2023-04-25T04:28:30.747Z,13.68
2023-04-25T04:31:07.675Z,22.75
2023-04-25T05:11:49.181Z,13.98
2023-04-25T05:57:46.906Z,8.88
2023-04-25T06:08:28.480Z,14.15
2023-04-25T06:21:54.299Z,12.98
2023-04-25T06:24:23.391Z,8.85
2023-04-25T06:26:54.614Z,9.93
2023-04-25T06:29:24.160Z,13.63
2023-04-25T06:31:51.221Z,12.27
2023-04-25T06:34:18.282Z,7.10
2023-04-25T06:36:45.587Z,12.20
2023-04-25T06:39:12.457Z,9.10
2023-04-25T06:41:39.195Z,12.63
2023-04-25T06:44:08.657Z,17.52
2023-04-25T06:46:38.914Z,13.90
2023-04-25T06:49:05.816Z,19.42
2023-04-25T06:51:32.563Z,12.75
2023-04-25T06:54:02.316Z,14.88
2023-04-25T06:56:31.925Z,10.00
2023-04-25T06:59:01.879Z,21.10
2023-04-25T07:01:28.528Z,10.52
2023-04-25T07:04:04.505Z,15.73
2023-04-25T07:06:32.074Z,7.90
2023-04-25T07:09:01.646Z,17.13
2023-04-25T07:11:28.293Z,9.75
2023-04-25T07:13:57.085Z,11.75
2023-04-25T07:16:23.787Z,14.98
2023-04-25T07:18:50.638Z,10.95
2023-04-25T07:21:17.456Z,15.45
2023-04-25T07:23:44.071Z,10.05
2023-04-25T07:26:10.873Z,13.43
2023-04-25T07:28:50.871Z,10.63
2023-04-25T07:31:19.253Z,9.65
2023-04-25T07:33:49.628Z,10.00
2023-04-25T07:36:16.604Z,13.30
2023-04-25T07:38:43.449Z,9.05
2023-04-25T07:41:10.124Z,14.15
2023-04-25T07:43:38.942Z,10.82
2023-04-25T07:46:06.179Z,13.48
2023-04-25T07:48:33.129Z,9.57
2023-04-25T07:51:02.467Z,11.95
2023-04-25T07:53:32.150Z,9.30
2023-04-25T07:56:00.715Z,9.35
2023-04-25T07:58:30.541Z,16.27
2023-04-25T08:01:03.084Z,7.63
2023-04-25T08:03:30.211Z,7.28
2023-04-25T08:05:57.282Z,11.25
2023-04-25T08:08:24.188Z,12.68
2023-04-25T08:10:53.562Z,7.45
2023-04-25T08:13:20.283Z,9.77
2023-04-25T08:15:52.281Z,14.95
2023-04-25T08:18:19.646Z,11.75
2023-04-25T08:20:51.820Z,16.00
2023-04-25T08:23:18.790Z,5.65
2023-04-25T08:25:45.509Z,8.68
2023-04-25T08:28:12.267Z,10.73
2023-04-25T08:30:39.021Z,10.32
2023-04-25T08:33:05.839Z,13.00
2023-04-25T08:35:35.509Z,10.32
2023-04-25T08:38:05.774Z,9.40
2023-04-25T08:40:42.990Z,8.70
2023-04-25T08:43:13.533Z,9.82
2023-04-25T08:45:43.100Z,8.13
2023-04-25T08:48:16.889Z,10.40
2023-04-25T08:50:54.193Z,10.50
2023-04-25T08:53:31.610Z,9.25
2023-04-25T08:56:04.478Z,8.63
2023-04-25T08:58:35.376Z,12.65
2023-04-25T09:01:05.334Z,8.75
2023-04-25T09:03:32.697Z,9.95
2023-04-25T09:06:00.034Z,8.23
2023-04-25T09:08:27.048Z,13.93
2023-04-25T09:10:56.779Z,7.78
2023-04-25T09:13:30.372Z,11.18
2023-04-25T09:15:59.114Z,10.25
2023-04-25T09:18:35.407Z,9.90
2023-04-25T09:21:15.020Z,9.90
2023-04-25T09:23:49.663Z,6.32
2023-04-25T09:26:22.366Z,8.43
2023-04-25T09:28:49.175Z,6.97
2023-04-25T09:31:26.266Z,8.00
2023-04-25T09:34:16.560Z,8.40
2023-04-25T09:36:50.566Z,9.18
2023-04-25T09:39:22.477Z,9.07
2023-04-25T09:42:09.826Z,5.13
2023-04-25T09:44:37.261Z,14.02
2023-04-25T09:47:04.792Z,10.40
2023-04-25T09:49:31.454Z,7.40
2023-04-25T09:52:00.386Z,6.68
2023-04-25T09:54:30.078Z,7.63
2023-04-25T09:57:02.270Z,13.80
2023-04-25T09:59:34.360Z,6.30
2023-04-25T10:02:01.408Z,9.25
2023-04-25T10:04:34.211Z,6.07
2023-04-25T10:07:07.322Z,9.73
2023-04-25T10:09:38.318Z,6.75
2023-04-25T10:12:08.165Z,6.57
2023-04-25T10:14:36.681Z,10.48
2023-04-25T10:17:04.200Z,8.85
2023-04-25T10:19:31.612Z,8.70
2023-04-25T10:22:19.669Z,7.82
2023-04-25T10:24:48.393Z,9.55
2023-04-25T10:27:15.735Z,8.65
2023-04-25T10:29:45.955Z,8.43
2023-04-25T10:32:16.076Z,9.57
2023-04-25T10:34:48.221Z,8.23
2023-04-25T10:37:18.225Z,8.18
2023-04-25T10:47:52.262Z,8.52
2023-04-25T10:58:47.290Z,10.75
2023-04-25T11:01:26.360Z,5.32
2023-04-25T11:03:59.651Z,6.93
2023-04-25T11:07:07.170Z,5.55
2023-04-25T11:23:17.050Z,5.93
2023-04-25T11:25:45.570Z,6.68
2023-04-25T11:28:12.322Z,6.35
2023-04-25T11:30:48.755Z,6.55
2023-04-25T11:33:15.639Z,6.70
2023-04-25T11:35:44.335Z,5.80
2023-04-25T11:38:11.972Z,6.20
2023-04-25T11:40:38.951Z,4.95
2023-04-25T11:43:05.871Z,4.18
2023-04-25T11:45:40.362Z,6.25
2023-04-25T11:48:07.738Z,9.10
2023-04-25T11:50:36.917Z,7.35
2023-04-25T11:53:04.021Z,7.40
2023-04-25T11:55:32.041Z,7.40
2023-04-25T11:58:01.778Z,4.85
2023-04-25T12:00:29.182Z,6.32
2023-04-25T12:03:01.674Z,5.32
2023-04-25T12:05:34.816Z,5.28
2023-04-25T12:08:18.552Z,4.10
2023-04-25T12:10:47.911Z,5.68
2023-04-25T12:13:25.515Z,6.68
2023-04-25T12:15:55.194Z,7.35
2023-04-25T12:18:26.734Z,5.90
2023-04-25T12:20:57.376Z,5.53
2023-04-25T12:23:29.225Z,4.45
2023-04-25T12:25:56.856Z,8.05
2023-04-25T12:28:28.006Z,5.60
2023-04-25T12:31:05.369Z,9.85
2023-04-25T12:33:38.913Z,5.07
2023-04-25T12:36:12.083Z,11.03
2023-04-25T12:38:43.741Z,8.38
2023-04-25T12:41:15.713Z,8.02
2023-04-25T12:43:45.354Z,6.05
2023-04-25T12:46:12.216Z,8.48
2023-04-25T12:48:45.501Z,3.67
2023-04-25T12:51:16.987Z,4.30
2023-04-25T12:53:46.798Z,8.15
2023-04-25T12:56:15.966Z,7.07
2023-04-25T12:58:45.021Z,5.72
2023-04-25T13:01:15.765Z,8.02
2023-04-25T13:03:42.635Z,4.80
2023-04-25T13:06:13.858Z,7.55
2023-04-25T13:08:46.119Z,10.82
2023-04-25T13:11:13.151Z,5.93
2023-04-25T13:13:42.024Z,2.70
2023-04-25T13:16:16.461Z,3.05
2023-04-25T13:18:43.395Z,3.38
2023-04-25T13:21:16.721Z,5.32
2023-04-25T13:23:47.696Z,5.33
2023-04-25T13:26:20.678Z,7.20
2023-04-25T13:28:47.362Z,7.93
2023-04-25T13:31:21.618Z,7.57
2023-04-25T13:36:17.520Z,8.77
2023-04-25T13:38:45.908Z,6.78
2023-04-25T13:41:19.616Z,8.23
2023-04-25T13:43:48.809Z,5.90
2023-04-25T13:46:35.353Z,5.68
2023-04-25T14:08:08.972Z,7.82
2023-04-25T14:10:37.355Z,5.13
2023-04-25T14:13:05.640Z,7.47
2023-04-25T14:15:33.732Z,11.43
2023-04-25T14:18:02.421Z,9.00
2023-04-25T14:20:30.192Z,6.45
2023-04-25T14:23:01.341Z,5.28
2023-04-25T14:25:29.024Z,8.68
2023-04-25T14:27:58.879Z,3.08
2023-04-25T14:30:25.610Z,7.05
2023-04-25T14:32:56.624Z,6.75
2023-04-25T14:35:23.912Z,8.38
2023-04-25T14:37:50.627Z,6.93
2023-04-25T14:40:17.971Z,4.65
2023-04-25T14:42:44.796Z,10.70
2023-04-25T14:45:16.815Z,9.63
2023-04-25T14:47:43.587Z,6.75
2023-04-25T14:50:11.454Z,7.07
2023-04-25T14:52:38.243Z,5.95
2023-04-25T14:55:09.318Z,3.83
2023-04-25T14:57:36.507Z,4.63
2023-04-25T15:00:08.142Z,9.30
2023-04-25T15:02:37.933Z,9.63
2023-04-25T15:05:05.709Z,7.68
2023-04-25T15:07:32.653Z,7.35
2023-04-25T15:09:59.334Z,5.35
2023-04-25T15:12:29.117Z,7.35
2023-04-25T15:15:02.714Z,10.25
2023-04-25T15:17:31.998Z,4.90
2023-04-25T15:19:58.732Z,4.50
2023-04-25T15:22:25.510Z,6.25
2023-04-25T15:24:56.645Z,7.00
2023-04-25T15:27:24.421Z,7.25
2023-04-25T15:29:51.103Z,5.35
2023-04-25T15:32:18.128Z,7.43
2023-04-25T15:34:44.910Z,6.82
2023-04-25T15:37:11.985Z,8.38
2023-04-25T15:39:38.677Z,8.13
2023-04-25T15:42:05.448Z,12.00
2023-04-25T15:44:32.247Z,11.02
2023-04-25T15:46:59.013Z,7.70
2023-04-25T15:49:25.919Z,8.07
2023-04-25T15:51:54.488Z,4.55
2023-04-25T15:54:22.097Z,7.10
2023-04-25T15:56:51.555Z,10.23
2023-04-25T15:59:28.942Z,8.75
2023-04-25T16:01:58.071Z,13.23
2023-04-25T16:04:26.657Z,7.55
2023-04-25T16:06:58.552Z,7.28
2023-04-25T16:09:25.349Z,8.35
2023-04-25T16:11:54.319Z,8.88
2023-04-25T16:14:21.337Z,8.68
2023-04-25T16:16:48.169Z,8.50
2023-04-25T16:19:17.408Z,4.68
2023-04-25T16:21:44.531Z,8.98
2023-04-25T16:24:20.103Z,7.80
2023-04-25T16:26:49.390Z,13.13
2023-04-25T16:29:22.535Z,12.52
2023-04-25T16:31:49.314Z,8.88
2023-04-25T16:34:19.412Z,10.60
2023-04-25T16:36:46.071Z,7.57
2023-04-25T16:39:12.831Z,10.27
2023-04-25T16:41:42.007Z,9.00
2023-04-25T16:44:09.210Z,11.63
2023-04-25T16:46:36.380Z,9.70
2023-04-25T16:49:03.391Z,9.55
2023-04-25T16:51:33.535Z,6.95
2023-04-25T16:54:01.204Z,4.88
2023-04-25T16:56:28.003Z,6.88
2023-04-25T16:59:00.470Z,6.75
2023-04-25T17:01:27.572Z,8.38
2023-04-25T17:12:04.889Z,6.10
2023-04-25T17:22:43.801Z,8.27
2023-04-25T18:41:53.580Z,8.00
2023-04-25T18:44:29.430Z,5.20
2023-04-25T20:02:39.213Z,6.32
2023-04-25T20:05:10.057Z,6.70
2023-04-25T20:07:46.275Z,6.78
2023-04-25T20:10:14.432Z,6.90
2023-04-25T20:12:45.384Z,8.48
2023-04-25T20:15:12.779Z,5.47
2023-04-25T20:17:41.703Z,9.82
2023-04-25T20:20:12.461Z,4.13
2023-04-25T20:22:43.781Z,8.05
2023-04-25T20:25:13.586Z,8.23
2023-04-25T20:27:43.355Z,11.95
2023-04-25T20:30:12.062Z,11.10
2023-04-25T20:32:40.322Z,10.70
2023-04-25T20:35:13.257Z,9.77
2023-04-25T20:37:43.079Z,11.85
2023-04-25T20:40:10.412Z,7.18
2023-04-25T20:42:38.446Z,7.07
2023-04-25T20:45:16.027Z,6.30
2023-04-25T20:47:45.004Z,8.27
2023-04-25T20:50:12.202Z,8.48
2023-04-25T20:52:39.157Z,7.80
2023-04-25T20:55:15.960Z,7.57
2023-04-25T20:57:43.178Z,6.07
2023-04-25T21:03:07.828Z,5.57
2023-04-25T21:05:34.778Z,4.50
2023-04-25T21:08:04.919Z,7.00
2023-04-25T21:10:32.222Z,10.07
2023-04-25T21:13:02.200Z,5.20
2023-04-25T21:15:30.075Z,5.07
2023-04-25T21:17:56.782Z,7.15
2023-04-25T21:20:27.099Z,5.45
2023-04-25T21:22:56.685Z,8.73
2023-04-25T21:25:31.209Z,9.45
2023-04-25T21:28:00.201Z,7.53
2023-04-25T21:30:30.833Z,8.02
2023-04-25T21:32:57.705Z,8.57
2023-04-25T21:35:27.583Z,10.90
2023-04-25T21:37:57.339Z,10.93
2023-04-25T21:40:27.156Z,12.35
2023-04-25T21:42:56.870Z,13.32
2023-04-25T21:45:29.037Z,7.97
2023-04-25T21:47:55.825Z,7.85
2023-04-25T21:50:22.825Z,13.13
2023-04-25T21:52:54.331Z,14.38
2023-04-25T21:55:22.140Z,15.35
2023-04-25T21:57:48.889Z,14.15
2023-04-25T22:00:27.992Z,12.18
2023-04-25T22:03:15.984Z,15.52
2023-04-25T22:05:44.453Z,15.20
2023-04-25T22:08:13.633Z,15.88
2023-04-25T22:10:43.474Z,15.02
2023-04-25T22:13:10.285Z,12.02
2023-04-25T22:15:38.085Z,8.07
2023-04-25T22:18:06.218Z,9.63
2023-04-25T22:20:33.299Z,9.13
2023-04-25T22:23:00.205Z,11.57
2023-04-25T22:25:27.230Z,10.13
2023-04-25T22:27:57.336Z,7.57
2023-04-25T22:30:26.912Z,9.13
2023-04-25T22:32:57.887Z,8.23
2023-04-25T22:35:29.765Z,7.28
2023-04-25T22:37:56.756Z,13.77
2023-04-25T22:40:24.073Z,9.57
2023-04-25T22:42:50.844Z,12.13
2023-04-25T22:45:17.843Z,10.23
2023-04-25T22:47:44.726Z,4.93
2023-04-25T22:50:16.860Z,6.70
2023-04-25T22:52:46.784Z,5.28
2023-04-25T22:55:16.786Z,9.68
2023-04-25T22:57:43.718Z,8.35
2023-04-25T23:00:20.205Z,5.97
2023-04-25T23:02:48.630Z,11.52
2023-04-25T23:05:18.886Z,7.72
2023-04-25T23:07:45.711Z,6.05
2023-04-25T23:10:14.025Z,10.20
2023-04-25T23:12:44.007Z,11.70
2023-04-25T23:15:14.669Z,7.57
2023-04-25T23:17:44.494Z,9.93
2023-04-25T23:20:16.818Z,7.10
2023-04-25T23:22:43.646Z,6.85
2023-04-25T23:25:10.719Z,6.15
2023-04-25T23:27:38.095Z,9.98
2023-04-25T23:30:10.482Z,4.63
2023-04-25T23:32:38.650Z,4.88
2023-04-25T23:35:06.720Z,6.13
2023-04-25T23:37:38.622Z,7.07
2023-04-25T23:40:10.188Z,7.57
2023-04-25T23:42:42.507Z,9.98
2023-04-25T23:45:10.111Z,5.72
2023-04-25T23:47:37.524Z,11.93
2023-04-25T23:50:08.024Z,5.30
2023-04-25T23:52:36.080Z,8.18
2023-04-25T23:55:05.387Z,12.63
2023-04-25T23:57:32.953Z,8.98
